createdAt,value
2017-08-13T00:01:38.543Z,11.95
2017-08-13T00:04:06.105Z,10.57
2017-08-13T00:06:33.637Z,10.63
2017-08-13T00:09:01.118Z,10.52
2017-08-13T00:11:28.549Z,10.23
2017-08-13T00:13:56.011Z,10.17
2017-08-13T00:16:23.656Z,11.68
2017-08-13T00:18:51.123Z,10.38
2017-08-13T00:21:18.602Z,11.43
2017-08-13T00:23:46.124Z,11.65
2017-08-13T00:26:13.597Z,11.57
2017-08-13T00:28:41.050Z,10.63
2017-08-13T00:31:08.495Z,12.80
2017-08-13T00:33:35.947Z,12.80
2017-08-13T00:36:03.386Z,11.23
2017-08-13T00:38:30.902Z,11.30
2017-08-13T00:40:58.455Z,12.32
2017-08-13T00:43:25.900Z,12.88
2017-08-13T00:45:53.341Z,12.80
2017-08-13T00:48:20.810Z,13.87
2017-08-13T00:50:48.251Z,12.73
2017-08-13T00:53:15.713Z,12.15
2017-08-13T00:55:43.142Z,14.50
2017-08-13T00:58:10.644Z,12.27
2017-08-13T01:00:38.084Z,12.50
2017-08-13T01:03:05.578Z,13.02
2017-08-13T01:05:33.785Z,12.45
2017-08-13T01:08:01.292Z,11.70
2017-08-13T01:10:28.734Z,11.23
2017-08-13T01:12:56.202Z,13.05
2017-08-13T01:15:23.642Z,15.00
2017-08-13T01:17:51.098Z,13.30
2017-08-13T01:20:18.547Z,11.32
2017-08-13T01:22:46.131Z,16.17
2017-08-13T01:25:13.585Z,12.32
2017-08-13T01:27:41.016Z,12.40
2017-08-13T01:30:08.485Z,12.65
2017-08-13T01:32:35.914Z,12.20
2017-08-13T01:35:03.485Z,12.30
2017-08-13T01:37:30.953Z,10.93
2017-08-13T01:39:58.527Z,11.98
2017-08-13T01:42:25.975Z,12.25
2017-08-13T01:44:53.423Z,12.55
2017-08-13T01:47:20.874Z,11.70
2017-08-13T01:49:48.315Z,11.85
2017-08-13T01:52:15.806Z,11.68
2017-08-13T01:54:43.251Z,10.47
2017-08-13T01:57:10.684Z,11.02
2017-08-13T01:59:38.161Z,9.73
2017-08-13T02:02:05.590Z,11.02
2017-08-13T02:04:33.022Z,11.07
2017-08-13T02:07:01.245Z,9.50
2017-08-13T02:09:28.719Z,12.20
2017-08-13T02:11:56.162Z,10.02
2017-08-13T02:14:23.607Z,9.80
2017-08-13T02:16:51.042Z,8.07
2017-08-13T02:19:18.470Z,7.97
2017-08-13T02:21:46.670Z,9.90
2017-08-13T02:24:14.098Z,11.30
2017-08-13T02:26:42.342Z,12.32
2017-08-13T02:29:09.771Z,8.80
2017-08-13T02:31:37.219Z,9.90
2017-08-13T02:34:04.707Z,9.18
2017-08-13T02:36:32.154Z,9.57
2017-08-13T02:38:59.620Z,9.40
2017-08-13T02:41:27.049Z,10.50
2017-08-13T02:43:54.536Z,11.55
2017-08-13T02:46:21.991Z,12.00
2017-08-13T02:48:49.414Z,10.50
2017-08-13T02:51:16.872Z,11.25
2017-08-13T02:53:44.326Z,10.10
2017-08-13T02:56:11.806Z,12.15
2017-08-13T02:58:39.258Z,10.95
2017-08-13T03:01:06.686Z,11.57
2017-08-13T03:03:34.195Z,10.05
2017-08-13T03:06:01.649Z,9.90
2017-08-13T03:08:29.193Z,10.13
2017-08-13T03:10:56.618Z,9.90
2017-08-13T03:13:24.108Z,11.80
2017-08-13T03:15:51.545Z,10.32
2017-08-13T03:18:18.993Z,9.65
2017-08-13T03:20:46.474Z,10.50
2017-08-13T03:23:13.914Z,9.98
2017-08-13T03:25:41.391Z,10.60
2017-08-13T03:28:08.847Z,10.15
2017-08-13T03:30:36.315Z,9.60
2017-08-13T03:33:03.754Z,9.75
2017-08-13T03:35:31.206Z,10.00
2017-08-13T03:37:58.629Z,11.25
2017-08-13T03:40:26.141Z,10.57
2017-08-13T03:42:53.582Z,10.40
2017-08-13T03:45:21.045Z,13.20
2017-08-13T03:47:48.500Z,10.68
2017-08-13T03:50:16.018Z,10.35
2017-08-13T03:52:43.446Z,10.38
2017-08-13T03:55:11.690Z,11.02
2017-08-13T03:57:39.134Z,10.30
2017-08-13T04:00:06.680Z,13.38
2017-08-13T04:02:34.116Z,10.77
2017-08-13T04:05:01.561Z,10.63
2017-08-13T04:07:29.762Z,10.47
2017-08-13T04:09:57.202Z,11.12
2017-08-13T04:12:24.654Z,11.18
2017-08-13T04:14:52.089Z,12.77
2017-08-13T04:17:20.343Z,12.00
2017-08-13T04:19:47.867Z,11.90
2017-08-13T04:22:15.337Z,10.02
2017-08-13T04:24:42.765Z,10.30
2017-08-13T04:27:10.266Z,11.63
2017-08-13T04:29:37.697Z,9.77
2017-08-13T04:32:05.158Z,11.60
2017-08-13T04:34:32.597Z,11.65
2017-08-13T04:37:00.089Z,12.23
2017-08-13T04:39:27.536Z,10.57
2017-08-13T04:41:54.970Z,10.98
2017-08-13T04:44:22.421Z,9.77
2017-08-13T04:46:49.861Z,10.70
2017-08-13T04:49:17.298Z,12.02
2017-08-13T04:51:45.532Z,11.10
2017-08-13T04:54:12.962Z,9.73
2017-08-13T04:56:40.429Z,11.70
2017-08-13T04:59:07.902Z,11.40
2017-08-13T05:01:35.354Z,9.65
2017-08-13T05:04:02.922Z,10.25
2017-08-13T05:06:30.358Z,9.80
2017-08-13T05:08:57.821Z,10.37
2017-08-13T05:11:25.259Z,10.38
2017-08-13T05:13:52.693Z,10.75
2017-08-13T05:16:20.283Z,11.00
2017-08-13T05:18:47.710Z,10.63
2017-08-13T05:21:15.209Z,11.98
2017-08-13T05:23:42.670Z,10.75
2017-08-13T05:26:10.132Z,9.67
2017-08-13T05:28:37.562Z,9.20
2017-08-13T05:31:05.006Z,9.73
2017-08-13T05:33:32.441Z,9.95
2017-08-13T05:36:00.647Z,9.40
2017-08-13T05:38:28.102Z,10.75
2017-08-13T05:40:55.550Z,9.98
2017-08-13T05:43:22.975Z,10.40
2017-08-13T05:45:51.201Z,10.75
2017-08-13T05:48:18.631Z,12.68
2017-08-13T05:50:46.223Z,12.10
2017-08-13T05:53:13.682Z,10.27
2017-08-13T05:55:41.137Z,10.80
2017-08-13T05:58:08.602Z,9.23
2017-08-13T06:00:36.034Z,10.10
2017-08-13T06:03:03.506Z,10.63
2017-08-13T06:05:30.954Z,9.45
2017-08-13T06:07:58.394Z,9.77
2017-08-13T06:10:25.818Z,10.63
2017-08-13T06:12:54.046Z,10.60
2017-08-13T06:15:21.487Z,9.38
2017-08-13T06:17:48.950Z,10.15
2017-08-13T06:20:16.375Z,9.73
2017-08-13T06:22:43.794Z,11.67
2017-08-13T06:25:11.314Z,9.38
2017-08-13T06:27:38.785Z,9.98
2017-08-13T06:30:06.249Z,9.85
2017-08-13T06:32:33.693Z,9.35
2017-08-13T06:35:01.131Z,9.82
2017-08-13T06:37:28.660Z,11.88
2017-08-13T06:39:56.884Z,12.70
2017-08-13T06:42:24.343Z,10.63
2017-08-13T06:44:51.906Z,11.30
2017-08-13T06:47:19.358Z,11.50
2017-08-13T06:49:46.908Z,10.65
2017-08-13T06:52:14.339Z,9.75
2017-08-13T06:54:41.763Z,9.50
2017-08-13T06:57:09.983Z,10.02
2017-08-13T06:59:37.426Z,10.10
2017-08-13T07:02:04.909Z,9.30
2017-08-13T07:04:32.352Z,11.30
2017-08-13T07:06:59.777Z,8.70
2017-08-13T07:09:27.222Z,9.32
2017-08-13T07:11:55.445Z,9.10
2017-08-13T07:14:23.552Z,12.37
2017-08-13T07:16:51.037Z,10.50
2017-08-13T07:19:18.534Z,10.50
2017-08-13T07:21:46.009Z,10.32
2017-08-13T07:24:13.450Z,10.33
2017-08-13T07:26:40.898Z,9.95
2017-08-13T07:29:08.349Z,9.35
2017-08-13T07:31:35.803Z,9.95
2017-08-13T07:34:03.276Z,8.90
2017-08-13T07:36:30.715Z,10.40
2017-08-13T07:38:58.175Z,9.05
2017-08-13T07:41:25.654Z,8.85
2017-08-13T07:43:53.202Z,9.40
2017-08-13T07:46:20.626Z,8.65
2017-08-13T07:48:48.104Z,7.80
2017-08-13T07:51:15.536Z,7.87
2017-08-13T07:53:42.968Z,6.97
2017-08-13T07:56:11.159Z,8.70
2017-08-13T07:58:38.603Z,8.25
2017-08-13T08:01:06.804Z,8.23
2017-08-13T08:03:34.298Z,6.68
2017-08-13T08:06:01.729Z,6.60
2017-08-13T08:08:29.200Z,7.87
2017-08-13T08:10:56.639Z,8.77
2017-08-13T08:13:24.102Z,7.68
2017-08-13T08:15:51.559Z,7.82
2017-08-13T08:18:18.986Z,7.25
2017-08-13T08:20:46.482Z,6.55
2017-08-13T08:23:13.955Z,5.55
2017-08-13T08:25:41.386Z,7.57
2017-08-13T08:28:08.833Z,7.15
2017-08-13T08:30:36.262Z,8.45
2017-08-13T08:33:03.847Z,5.75
2017-08-13T08:35:31.317Z,5.15
2017-08-13T08:37:58.782Z,4.95
2017-08-13T08:40:26.217Z,8.27
2017-08-13T08:42:54.606Z,6.15
2017-08-13T08:45:22.077Z,6.55
2017-08-13T08:47:49.590Z,4.10
2017-08-13T08:50:17.080Z,5.75
2017-08-13T08:52:44.534Z,5.57
2017-08-13T08:55:11.966Z,4.82
2017-08-13T08:57:39.457Z,5.97
2017-08-13T09:00:06.887Z,3.60
2017-08-13T09:02:34.331Z,3.42
2017-08-13T09:05:01.753Z,4.43
2017-08-13T09:07:29.994Z,4.10
2017-08-13T09:09:57.456Z,6.45
2017-08-13T09:12:24.886Z,3.70
2017-08-13T09:14:52.362Z,6.10
2017-08-13T09:17:19.799Z,5.90
2017-08-13T09:19:47.273Z,6.82
2017-08-13T09:22:14.726Z,3.90
2017-08-13T09:24:42.167Z,5.47
2017-08-13T09:27:09.613Z,5.97
2017-08-13T09:29:37.038Z,7.68
2017-08-13T09:32:05.240Z,4.97
2017-08-13T09:34:32.677Z,3.27
2017-08-13T09:37:00.898Z,4.75
2017-08-13T09:39:28.328Z,5.53
2017-08-13T09:41:55.751Z,4.20
2017-08-13T09:44:24.085Z,3.03
2017-08-13T09:46:51.543Z,4.32
2017-08-13T09:49:18.974Z,4.50
2017-08-13T09:51:46.449Z,5.37
2017-08-13T09:54:13.911Z,5.57
2017-08-13T09:56:41.352Z,4.78
2017-08-13T09:59:08.777Z,3.97
2017-08-13T10:01:36.279Z,3.08
2017-08-13T10:04:03.721Z,3.00
2017-08-13T10:06:31.156Z,6.03
2017-08-13T10:08:58.587Z,5.93
2017-08-13T10:11:26.015Z,4.93
2017-08-13T10:13:53.458Z,4.57
2017-08-13T10:16:20.897Z,5.68
2017-08-13T10:18:48.479Z,6.30
2017-08-13T10:21:15.972Z,3.70
2017-08-13T10:23:43.365Z,3.87
2017-08-13T10:26:10.847Z,5.95
2017-08-13T10:28:38.309Z,3.92
2017-08-13T10:31:05.742Z,3.40
2017-08-13T10:33:33.584Z,2.80
2017-08-13T10:36:01.170Z,2.95
2017-08-13T10:38:28.581Z,3.87
2017-08-13T10:40:56.872Z,5.65
2017-08-13T10:43:24.327Z,4.50
2017-08-13T10:45:51.809Z,3.20
2017-08-13T10:48:19.248Z,6.37
2017-08-13T10:50:46.733Z,3.37
2017-08-13T10:53:14.178Z,4.20
2017-08-13T10:55:41.610Z,3.50
2017-08-13T10:58:09.118Z,4.28
2017-08-13T11:00:36.546Z,3.53
2017-08-13T11:03:04.018Z,5.07
2017-08-13T11:05:31.477Z,5.80
2017-08-13T11:07:58.902Z,4.30
2017-08-13T11:10:26.354Z,4.97
2017-08-13T11:12:53.775Z,6.25
2017-08-13T11:15:21.315Z,5.47
2017-08-13T11:17:48.755Z,4.35
2017-08-13T11:20:16.212Z,4.03
2017-08-13T11:22:43.669Z,7.10
2017-08-13T11:25:11.102Z,4.53
2017-08-13T11:27:38.594Z,6.57
2017-08-13T11:30:06.032Z,4.70
2017-08-13T11:32:33.503Z,3.60
2017-08-13T11:35:00.975Z,4.00
2017-08-13T11:37:28.408Z,4.00
2017-08-13T11:39:55.864Z,4.93
2017-08-13T11:42:23.299Z,4.25
2017-08-13T11:44:50.730Z,4.80
2017-08-13T11:47:18.168Z,4.50
2017-08-13T11:49:46.358Z,3.42
2017-08-13T11:52:13.803Z,4.82
2017-08-13T11:54:42.035Z,4.00
2017-08-13T11:57:09.487Z,4.83
2017-08-13T11:59:36.927Z,6.00
2017-08-13T12:02:04.353Z,3.55
2017-08-13T12:04:32.554Z,4.35
2017-08-13T12:06:59.986Z,3.58
2017-08-13T12:09:27.409Z,5.62
2017-08-13T12:11:54.837Z,4.12
2017-08-13T12:14:22.313Z,3.00
2017-08-13T12:16:49.754Z,5.00
2017-08-13T12:19:17.185Z,3.03
2017-08-13T12:21:44.682Z,5.33
2017-08-13T12:24:12.123Z,5.80
2017-08-13T12:26:39.580Z,4.35
2017-08-13T12:29:07.041Z,3.20
2017-08-13T12:31:34.494Z,4.53
2017-08-13T12:34:01.941Z,4.03
2017-08-13T12:36:29.389Z,3.37
2017-08-13T12:38:56.850Z,2.47
2017-08-13T12:41:24.327Z,4.30
2017-08-13T12:43:51.772Z,4.05
2017-08-13T12:46:19.255Z,4.00
2017-08-13T12:48:46.774Z,4.03
2017-08-13T12:51:14.220Z,2.58
2017-08-13T12:53:41.653Z,3.17
2017-08-13T12:56:09.882Z,3.03
2017-08-13T12:58:37.417Z,2.40
2017-08-13T13:01:04.982Z,3.40
2017-08-13T13:03:32.702Z,3.80
2017-08-13T13:06:00.113Z,2.42
2017-08-13T13:08:27.661Z,3.78
2017-08-13T13:10:55.107Z,2.10
2017-08-13T13:13:22.518Z,4.60
2017-08-13T13:15:50.754Z,2.08
2017-08-13T13:18:18.190Z,2.72
2017-08-13T13:20:45.624Z,2.33
2017-08-13T13:23:13.118Z,4.10
2017-08-13T13:25:40.766Z,3.65
2017-08-13T13:28:08.243Z,1.90
2017-08-13T13:30:35.698Z,2.45
2017-08-13T13:33:03.154Z,2.93
2017-08-13T13:35:30.598Z,4.03
2017-08-13T13:37:58.026Z,2.63
2017-08-13T13:40:25.481Z,3.80
2017-08-13T13:42:52.993Z,3.53
2017-08-13T13:45:20.423Z,2.80
2017-08-13T13:47:47.894Z,2.50
2017-08-13T13:50:15.338Z,2.90
2017-08-13T13:52:42.888Z,3.28
2017-08-13T13:55:10.459Z,2.58
2017-08-13T13:57:37.902Z,4.30
2017-08-13T14:00:05.376Z,4.20
2017-08-13T14:02:32.946Z,3.83
2017-08-13T14:05:00.390Z,2.40
2017-08-13T14:07:27.849Z,2.30
2017-08-13T14:09:55.287Z,3.28
2017-08-13T14:12:22.713Z,4.05
2017-08-13T14:14:50.216Z,3.35
2017-08-13T14:17:17.656Z,3.17
2017-08-13T14:19:45.141Z,3.25
2017-08-13T14:22:12.563Z,3.25
2017-08-13T14:24:40.142Z,4.10
2017-08-13T14:27:07.569Z,2.40
2017-08-13T14:29:35.016Z,4.00
2017-08-13T14:32:02.508Z,3.55
2017-08-13T14:34:30.038Z,3.00
2017-08-13T14:36:57.483Z,2.50
2017-08-13T14:39:24.982Z,2.22
2017-08-13T14:41:52.439Z,4.07
2017-08-13T14:44:19.867Z,2.20
2017-08-13T14:46:47.350Z,3.10
2017-08-13T14:49:14.820Z,2.70
2017-08-13T14:51:42.241Z,2.83
2017-08-13T14:54:09.722Z,1.60
2017-08-13T14:56:37.177Z,2.70
2017-08-13T14:59:04.601Z,1.70
2017-08-13T15:01:32.185Z,2.40
2017-08-13T15:03:59.627Z,2.78
2017-08-13T15:06:27.057Z,2.65
2017-08-13T15:08:54.498Z,2.75
2017-08-13T15:11:22.716Z,3.05
2017-08-13T15:13:50.194Z,1.62
2017-08-13T15:16:17.623Z,3.25
2017-08-13T15:18:45.058Z,1.85
2017-08-13T15:21:12.560Z,2.72
2017-08-13T15:23:40.006Z,4.10
2017-08-13T15:26:07.435Z,4.28
2017-08-13T15:28:35.023Z,2.05
2017-08-13T15:31:02.450Z,2.90
2017-08-13T15:33:29.934Z,2.22
2017-08-13T15:35:57.500Z,3.30
2017-08-13T15:38:24.962Z,3.05
2017-08-13T15:40:52.406Z,2.10
2017-08-13T15:43:19.848Z,2.45
2017-08-13T15:45:47.413Z,3.95
2017-08-13T15:48:14.897Z,2.47
2017-08-13T15:50:42.334Z,3.17
2017-08-13T15:53:09.821Z,3.40
2017-08-13T15:55:37.351Z,2.33
2017-08-13T15:58:04.777Z,3.15
2017-08-13T16:00:32.211Z,2.20
2017-08-13T16:03:00.439Z,2.63
2017-08-13T16:05:27.890Z,2.50
2017-08-13T16:07:55.322Z,3.53
2017-08-13T16:10:22.765Z,2.72
2017-08-13T16:12:50.200Z,2.37
2017-08-13T16:15:17.629Z,3.43
2017-08-13T16:17:45.082Z,2.60
2017-08-13T16:20:12.529Z,1.80
2017-08-13T16:22:40.205Z,3.97
2017-08-13T16:25:07.639Z,4.10
2017-08-13T16:27:35.110Z,2.00
2017-08-13T16:30:02.563Z,2.03
2017-08-13T16:32:29.995Z,1.40
2017-08-13T16:34:57.428Z,3.22
2017-08-13T16:37:24.870Z,3.33
2017-08-13T16:39:53.102Z,3.55
2017-08-13T16:42:20.559Z,2.42
2017-08-13T16:44:48.018Z,3.35
2017-08-13T16:47:15.485Z,3.22
2017-08-13T16:49:42.922Z,2.85
2017-08-13T16:52:10.388Z,2.20
2017-08-13T16:54:37.852Z,2.75
2017-08-13T16:57:05.294Z,2.97
2017-08-13T16:59:32.842Z,2.37
2017-08-13T17:02:00.283Z,2.17
2017-08-13T17:04:27.714Z,3.00
2017-08-13T17:06:55.949Z,2.67
2017-08-13T17:09:23.414Z,2.83
2017-08-13T17:11:50.955Z,4.25
2017-08-13T17:14:18.395Z,4.40
2017-08-13T17:16:45.826Z,3.00
2017-08-13T17:19:14.056Z,3.17
2017-08-13T17:21:41.495Z,3.35
2017-08-13T17:24:08.955Z,3.60
2017-08-13T17:26:36.422Z,3.00
2017-08-13T17:29:03.864Z,3.70
2017-08-13T17:31:31.325Z,3.80
2017-08-13T17:33:58.786Z,3.00
2017-08-13T17:36:26.215Z,3.50
2017-08-13T17:38:53.637Z,2.08
2017-08-13T17:41:21.879Z,3.07
2017-08-13T17:43:49.303Z,2.45
2017-08-13T17:46:16.729Z,3.10
2017-08-13T17:48:44.166Z,2.42
2017-08-13T17:51:11.705Z,2.87
2017-08-13T17:53:39.133Z,5.07
2017-08-13T17:56:06.697Z,3.17
2017-08-13T17:58:34.263Z,2.75
2017-08-13T18:01:02.727Z,3.13
2017-08-13T18:03:30.194Z,2.12
2017-08-13T18:05:57.658Z,3.57
2017-08-13T18:08:25.083Z,3.67
2017-08-13T18:10:52.567Z,3.03
2017-08-13T18:13:19.994Z,3.72
2017-08-13T18:15:47.554Z,2.30
2017-08-13T18:18:14.987Z,3.87
2017-08-13T18:20:43.326Z,3.10
2017-08-13T18:23:10.871Z,3.42
2017-08-13T18:25:38.325Z,4.12
2017-08-13T18:28:05.793Z,5.00
2017-08-13T18:30:33.330Z,3.95
2017-08-13T18:33:00.768Z,4.10
2017-08-13T18:35:28.190Z,3.58
2017-08-13T18:37:56.444Z,3.17
2017-08-13T18:40:23.872Z,3.97
2017-08-13T18:42:51.293Z,5.07
2017-08-13T18:45:19.510Z,2.97
2017-08-13T18:47:46.959Z,4.80
2017-08-13T18:50:14.383Z,4.12
2017-08-13T18:52:41.869Z,4.25
2017-08-13T18:55:09.346Z,5.60
2017-08-13T18:57:36.790Z,2.70
2017-08-13T19:00:04.251Z,4.62
2017-08-13T19:02:31.721Z,2.87
2017-08-13T19:04:59.158Z,3.95
2017-08-13T19:07:26.602Z,4.20
2017-08-13T19:09:54.086Z,4.18
2017-08-13T19:12:21.506Z,3.55
2017-08-13T19:14:48.946Z,6.55
2017-08-13T19:17:17.159Z,5.50
2017-08-13T19:19:44.586Z,3.85
2017-08-13T19:22:12.079Z,2.60
2017-08-13T19:24:39.533Z,6.20
2017-08-13T19:27:07.003Z,4.95
2017-08-13T19:29:34.437Z,4.80
2017-08-13T19:32:01.869Z,3.95
2017-08-13T19:34:29.463Z,3.87
2017-08-13T19:36:56.922Z,3.30
2017-08-13T19:39:24.354Z,5.30
2017-08-13T19:41:51.795Z,4.22
2017-08-13T19:44:19.255Z,4.43
2017-08-13T19:46:46.832Z,3.55
2017-08-13T19:49:14.285Z,3.33
2017-08-13T19:51:41.698Z,5.50
2017-08-13T19:54:09.897Z,5.78
2017-08-13T19:56:37.499Z,3.00
2017-08-13T19:59:05.443Z,5.60
2017-08-13T20:01:33.721Z,5.28
2017-08-13T20:04:01.143Z,4.93
2017-08-13T20:06:29.334Z,6.70
2017-08-13T20:08:56.782Z,4.18
2017-08-13T20:11:24.222Z,4.30
2017-08-13T20:13:52.412Z,4.90
2017-08-13T20:16:19.898Z,5.37
2017-08-13T20:18:47.360Z,5.30
2017-08-13T20:21:14.790Z,5.00
2017-08-13T20:23:42.268Z,3.83
2017-08-13T20:26:09.750Z,5.00
2017-08-13T20:28:37.193Z,6.00
2017-08-13T20:31:04.645Z,4.55
2017-08-13T20:33:32.106Z,5.07
2017-08-13T20:35:59.531Z,7.68
2017-08-13T20:38:27.007Z,5.85
2017-08-13T20:40:54.439Z,3.58
2017-08-13T20:43:21.870Z,6.17
2017-08-13T20:45:50.071Z,7.70
2017-08-13T20:48:17.510Z,6.90
2017-08-13T20:50:45.013Z,5.55
2017-08-13T20:53:12.450Z,7.18
2017-08-13T20:55:39.890Z,4.80
2017-08-13T20:58:07.379Z,9.77
2017-08-13T21:00:34.800Z,5.20
2017-08-13T21:03:02.252Z,3.35
2017-08-13T21:05:29.749Z,6.70
2017-08-13T21:07:57.198Z,8.05
2017-08-13T21:10:24.664Z,6.47
2017-08-13T21:12:52.202Z,4.87
2017-08-13T21:15:19.617Z,7.37
2017-08-13T21:17:47.815Z,7.50
2017-08-13T21:20:15.301Z,4.15
2017-08-13T21:22:42.766Z,5.80
2017-08-13T21:25:10.198Z,5.47
2017-08-13T21:27:37.634Z,7.70
2017-08-13T21:30:05.135Z,4.50
2017-08-13T21:32:32.564Z,4.37
2017-08-13T21:35:00.014Z,5.85
2017-08-13T21:37:27.507Z,6.12
2017-08-13T21:39:55.106Z,5.62
2017-08-13T21:42:23.418Z,10.05
2017-08-13T21:44:50.857Z,6.97
2017-08-13T21:47:18.347Z,6.20
2017-08-13T21:49:45.790Z,7.90
2017-08-13T21:52:13.359Z,6.53
2017-08-13T21:54:41.025Z,6.47
2017-08-13T21:57:08.478Z,5.82
2017-08-13T21:59:35.938Z,7.32
2017-08-13T22:02:03.354Z,6.90
2017-08-13T22:04:30.857Z,7.18
2017-08-13T22:06:58.287Z,7.80
2017-08-13T22:09:25.758Z,5.60
2017-08-13T22:11:53.219Z,6.90
2017-08-13T22:14:20.662Z,8.30
2017-08-13T22:16:48.098Z,6.72
2017-08-13T22:19:15.583Z,8.38
2017-08-13T22:21:43.082Z,7.05
2017-08-13T22:24:11.283Z,7.97
2017-08-13T22:26:38.774Z,7.30
2017-08-13T22:29:06.246Z,8.07
2017-08-13T22:31:33.786Z,8.00
2017-08-13T22:34:01.346Z,6.18
2017-08-13T22:36:28.793Z,7.15
2017-08-13T22:38:56.258Z,8.65
2017-08-13T22:41:23.710Z,8.50
2017-08-13T22:43:51.176Z,6.97
2017-08-13T22:46:18.726Z,9.25
2017-08-13T22:48:46.189Z,8.38
2017-08-13T22:51:13.643Z,6.53
2017-08-13T22:53:41.090Z,8.88
2017-08-13T22:56:08.566Z,7.00
2017-08-13T22:58:36.015Z,8.77
2017-08-13T23:01:09.930Z,7.37
2017-08-13T23:03:37.370Z,9.10
2017-08-13T23:06:04.839Z,7.07
2017-08-13T23:08:32.298Z,7.07
2017-08-13T23:10:59.855Z,6.10
2017-08-13T23:13:27.295Z,6.80
2017-08-13T23:15:54.714Z,7.68
2017-08-13T23:18:22.226Z,14.65
2017-08-13T23:20:49.675Z,12.32
2017-08-13T23:23:17.106Z,7.70
2017-08-13T23:25:44.549Z,8.15
2017-08-13T23:28:12.050Z,8.95
2017-08-13T23:30:39.494Z,8.23
2017-08-13T23:33:06.955Z,11.30
2017-08-13T23:35:34.404Z,9.20
2017-08-13T23:38:01.883Z,8.75
2017-08-13T23:40:29.423Z,5.87
2017-08-13T23:42:56.873Z,10.35
2017-08-13T23:45:24.299Z,7.35
2017-08-13T23:47:51.802Z,9.80
2017-08-13T23:50:19.238Z,7.03
2017-08-13T23:52:46.653Z,7.50
2017-08-13T23:55:14.851Z,8.65
2017-08-13T23:57:42.274Z,7.75
